Time;durP1;ratioP1;P1;durP2;ratioP2;P2;SDS_P1;SDS_P2;PMS_P1;PMS_P2;Temp;Humidity;BMP_temperature;BMP_pressure;BME280_temperature;BME280_humidity;BME280_pressure;Samples;Min_cycle;Max_cycle;Signal;HPM_P1;HPM_P2
2021/09/11 00:00:33;;;;;;;6.25;4.72;;;17.60;99.90;17.70;100541.00;;;;4977289;28;117789;-68
2021/09/11 00:02:58;;;;;;;9.13;5.47;;;17.60;99.90;17.70;100533.00;;;;4976845;28;106460;-66
2021/09/11 00:05:25;;;;;;;5.75;5.13;;;17.60;99.90;17.70;100542.00;;;;4958838;28;107549;-66
2021/09/11 00:07:51;;;;;;;5.15;4.45;;;17.60;99.90;17.70;100548.00;;;;4963142;28;110194;-66
2021/09/11 00:10:18;;;;;;;5.95;5.03;;;17.60;99.90;17.60;100546.00;;;;4974304;28;87509;-68
2021/09/11 00:12:45;;;;;;;11.70;6.40;;;17.50;99.90;17.60;100546.00;;;;4958826;28;88668;-67
2021/09/11 00:15:14;;;;;;;8.23;6.20;;;17.50;99.90;17.50;100548.00;;;;4977674;28;87845;-65
2021/09/11 00:17:41;;;;;;;7.28;5.70;;;17.60;99.90;17.50;100545.00;;;;4976351;28;88749;-66
2021/09/11 00:20:08;;;;;;;6.60;5.97;;;17.40;99.90;17.50;100548.00;;;;4977493;28;87921;-67
2021/09/11 00:22:35;;;;;;;9.70;6.38;;;17.40;99.90;17.50;100538.00;;;;4976669;28;90493;-66
2021/09/11 00:25:00;;;;;;;7.32;5.53;;;17.30;99.90;17.40;100533.00;;;;4977633;28;87719;-66
2021/09/11 00:27:26;;;;;;;10.65;6.72;;;17.30;99.90;17.40;100530.00;;;;4975996;28;117904;-66
2021/09/11 00:29:52;;;;;;;7.00;5.63;;;17.30;99.90;17.40;100529.00;;;;4976290;28;117626;-66
2021/09/11 00:32:17;;;;;;;17.08;6.38;;;17.30;99.90;17.40;100528.00;;;;4976725;28;87737;-66
2021/09/11 00:34:43;;;;;;;8.70;5.57;;;17.30;99.90;17.40;100522.00;;;;4976261;28;108904;-66
2021/09/11 00:37:09;;;;;;;12.43;6.30;;;17.30;99.90;17.40;100529.00;;;;4975724;28;118741;-65
2021/09/11 00:39:35;;;;;;;8.40;6.63;;;17.30;99.90;17.40;100522.00;;;;4975983;28;118653;-66
2021/09/11 00:42:02;;;;;;;7.43;5.32;;;17.30;99.90;17.40;100525.00;;;;4977001;28;90918;-66
2021/09/11 00:44:28;;;;;;;10.82;6.13;;;17.30;99.90;17.40;100532.00;;;;4977486;28;87747;-66
2021/09/11 00:46:54;;;;;;;6.63;5.45;;;17.30;99.90;17.40;100521.00;;;;4977121;28;93847;-66
2021/09/11 00:49:20;;;;;;;6.50;5.70;;;17.30;99.90;17.30;100533.00;;;;4958271;28;93133;-66
2021/09/11 00:51:46;;;;;;;8.30;5.88;;;17.30;99.90;17.30;100531.00;;;;4977426;28;87957;-65
2021/09/11 00:54:13;;;;;;;6.70;5.28;;;17.20;99.90;17.30;100528.00;;;;4977177;28;87117;-66
2021/09/11 00:56:39;;;;;;;9.60;5.70;;;17.20;99.90;17.30;100535.00;;;;4958846;28;88143;-66
2021/09/11 00:59:04;;;;;;;6.80;5.70;;;17.20;99.90;17.30;100528.00;;;;4976201;28;87872;-66
2021/09/11 01:01:30;;;;;;;8.35;6.25;;;17.20;99.90;17.30;100530.00;;;;4957380;28;108490;-66
2021/09/11 01:03:56;;;;;;;7.50;4.68;;;17.20;99.90;17.30;100526.00;;;;4976454;28;87837;-66
2021/09/11 01:06:24;;;;;;;5.82;5.18;;;17.20;99.90;17.30;100535.00;;;;4976741;28;89178;-66
2021/09/11 01:08:51;;;;;;;8.05;4.82;;;17.20;99.90;17.20;100528.00;;;;4976304;28;88042;-66
2021/09/11 01:11:17;;;;;;;6.60;5.68;;;17.20;99.90;17.20;100538.00;;;;4985636;28;94242;-66
2021/09/11 01:13:43;;;;;;;8.38;5.07;;;17.20;99.90;17.20;100525.00;;;;4984367;28;87688;-66
2021/09/11 01:16:09;;;;;;;10.07;5.35;;;17.10;99.90;17.20;100518.00;;;;4958337;28;116740;-66
2021/09/11 01:18:35;;;;;;;8.77;5.28;;;17.50;99.90;17.20;100533.00;;;;4976513;28;88102;-67
2021/09/11 01:21:02;;;;;;;5.75;5.15;;;17.10;99.90;17.10;100528.00;;;;4977265;28;90666;-66
2021/09/11 01:23:28;;;;;;;6.88;5.63;;;17.10;99.90;17.10;100528.00;;;;4975612;28;103885;-66
2021/09/11 01:25:54;;;;;;;8.77;6.03;;;17.00;99.90;17.00;100531.00;;;;4975107;28;119222;-66
2021/09/11 01:28:21;;;;;;;7.28;5.30;;;17.00;99.90;17.00;100531.00;;;;4975072;28;119109;-66
2021/09/11 01:30:47;;;;;;;8.52;6.25;;;16.90;99.90;17.00;100531.00;;;;4976155;28;104266;-66
2021/09/11 01:33:13;;;;;;;12.65;6.00;;;16.90;99.90;16.90;100538.00;;;;4976167;28;87832;-66
2021/09/11 01:35:39;;;;;;;8.23;5.53;;;16.90;99.90;16.90;100540.00;;;;4976223;28;93552;-66
2021/09/11 01:38:05;;;;;;;11.45;5.47;;;16.80;99.90;16.90;100540.00;;;;4957300;28;88016;-66
2021/09/11 01:40:31;;;;;;;6.90;5.38;;;16.80;99.90;16.90;100537.00;;;;4976119;28;87835;-66
2021/09/11 01:42:57;;;;;;;6.22;5.38;;;16.80;99.90;16.90;100538.00;;;;4976649;28;87005;-66
2021/09/11 01:45:23;;;;;;;5.13;4.63;;;16.80;99.90;16.90;100539.00;;;;4974886;28;118073;-66
2021/09/11 01:47:50;;;;;;;6.90;5.43;;;16.80;99.90;16.80;100534.00;;;;4975775;28;92922;-66
2021/09/11 01:50:19;;;;;;;7.45;6.03;;;16.70;99.90;16.80;100538.00;;;;4976007;28;88697;-66
2021/09/11 01:52:46;;;;;;;7.95;5.70;;;16.70;99.90;16.80;100537.00;;;;4976748;28;87648;-66
2021/09/11 01:55:14;;;;;;;6.35;5.30;;;16.70;99.90;16.80;100539.00;;;;4976341;28;88407;-66
2021/09/11 01:57:42;;;;;;;5.57;4.95;;;16.70;99.90;16.80;100538.00;;;;4957447;28;87911;-66
2021/09/11 02:00:10;;;;;;;6.70;5.47;;;16.70;99.90;16.80;100542.00;;;;4976207;28;90765;-65
2021/09/11 02:02:36;;;;;;;10.63;6.20;;;16.70;99.90;16.80;100532.00;;;;4980201;28;88066;-66
2021/09/11 02:05:06;;;;;;;5.70;4.28;;;16.70;99.90;16.80;100543.00;;;;4979755;28;101229;-66
2021/09/11 02:07:32;;;;;;;10.50;5.32;;;16.70;99.90;16.80;100547.00;;;;4979299;28;86995;-66
2021/09/11 02:09:58;;;;;;;6.70;5.28;;;16.70;99.90;16.80;100545.00;;;;4979956;28;90375;-66
2021/09/11 02:12:24;;;;;;;7.82;6.05;;;16.70;99.90;16.80;100541.00;;;;4978961;28;108230;-66
2021/09/11 02:14:50;;;;;;;10.68;5.53;;;16.70;99.90;16.80;100545.00;;;;4977875;28;118409;-67
2021/09/11 02:17:16;;;;;;;7.43;5.80;;;16.70;99.90;16.80;100541.00;;;;4978704;28;118678;-65
2021/09/11 02:19:41;;;;;;;8.90;5.82;;;16.70;99.90;16.80;100543.00;;;;4978042;28;110899;-65
2021/09/11 02:22:10;;;;;;;10.55;6.22;;;16.70;99.90;16.80;100542.00;;;;4960794;28;87791;-68
2021/09/11 02:24:37;;;;;;;8.00;5.80;;;16.80;99.90;16.70;100548.00;;;;4978895;28;89136;-65
2021/09/11 02:27:04;;;;;;;6.57;5.35;;;16.60;99.90;16.70;100548.00;;;;4978851;28;95610;-66
2021/09/11 02:29:30;;;;;;;8.25;5.07;;;16.60;99.90;16.70;100552.00;;;;4980161;28;89369;-66
2021/09/11 02:31:56;;;;;;;5.60;4.88;;;16.60;99.90;16.70;100543.00;;;;4980624;28;87048;-67
2021/09/11 02:34:21;;;;;;;7.45;6.15;;;16.60;99.90;16.70;100547.00;;;;4978738;28;118041;-65
2021/09/11 02:36:47;;;;;;;6.78;5.05;;;16.60;99.90;16.60;100545.00;;;;4978488;28;93145;-66
2021/09/11 02:39:13;;;;;;;6.13;4.63;;;16.60;99.90;16.60;100549.00;;;;4977367;28;88748;-65
2021/09/11 02:41:39;;;;;;;7.53;5.38;;;16.50;99.90;16.60;100557.00;;;;4978950;28;87966;-66
2021/09/11 02:44:05;;;;;;;5.82;4.63;;;16.50;99.90;16.50;100560.00;;;;4977405;28;117553;-66
2021/09/11 02:46:31;;;;;;;7.03;5.28;;;16.50;99.90;16.50;100551.00;;;;4978228;28;87989;-66
2021/09/11 02:48:59;;;;;;;7.25;4.90;;;16.40;99.90;16.50;100555.00;;;;4978726;28;87863;-66
2021/09/11 02:51:26;;;;;;;6.70;5.20;;;16.40;99.90;16.40;100561.00;;;;4960408;28;87724;-66
2021/09/11 02:53:52;;;;;;;5.93;4.78;;;16.40;99.90;16.40;100561.00;;;;4978170;28;88693;-65
2021/09/11 02:56:18;;;;;;;6.28;4.97;;;16.40;99.90;16.40;100561.00;;;;4979477;28;87909;-67
2021/09/11 02:58:44;;;;;;;8.43;4.18;;;16.30;99.90;16.40;100565.00;;;;4959991;28;87976;-67
2021/09/11 03:01:09;;;;;;;5.47;4.32;;;16.30;99.90;16.30;100567.00;;;;4977388;28;109010;-67
2021/09/11 03:03:37;;;;;;;4.78;4.07;;;16.30;99.90;16.30;100556.00;;;;4976379;28;119561;-67
2021/09/11 03:06:02;;;;;;;5.38;4.80;;;16.30;99.90;16.30;100556.00;;;;4978755;28;88524;-67
2021/09/11 03:08:28;;;;;;;8.32;4.90;;;16.50;99.90;16.30;100567.00;;;;4977430;28;109508;-67
2021/09/11 03:10:54;;;;;;;5.40;4.68;;;16.20;99.90;16.20;100557.00;;;;4979012;28;87384;-66
2021/09/11 03:13:20;;;;;;;5.85;5.25;;;16.20;99.90;16.20;100562.00;;;;4976075;28;88786;-66
2021/09/11 03:15:46;;;;;;;7.15;5.93;;;16.10;99.90;16.20;100569.00;;;;4960467;28;87702;-66
2021/09/11 03:18:12;;;;;;;8.20;5.25;;;16.10;99.90;16.20;100558.00;;;;4978256;28;87809;-65
2021/09/11 03:20:37;;;;;;;6.22;4.55;;;16.10;99.90;16.10;100571.00;;;;4961058;28;87093;-65
2021/09/11 03:23:05;;;;;;;6.70;5.32;;;16.20;99.90;16.10;100573.00;;;;4976392;28;116834;-65
2021/09/11 03:25:31;;;;;;;7.88;5.55;;;16.10;99.90;16.10;100578.00;;;;4978277;28;87930;-65
2021/09/11 03:27:57;;;;;;;11.27;5.70;;;16.00;99.90;16.10;100576.00;;;;4958872;28;89008;-65
2021/09/11 03:30:23;;;;;;;7.72;5.20;;;16.00;99.90;16.10;100583.00;;;;4977457;28;109958;-65
2021/09/11 03:32:49;;;;;;;9.75;5.22;;;16.00;99.90;16.10;100569.00;;;;4977765;28;88193;-66
2021/09/11 03:35:15;;;;;;;8.68;5.63;;;16.00;99.90;16.10;100572.00;;;;4976997;28;116979;-65
2021/09/11 03:37:41;;;;;;;6.57;5.35;;;16.00;99.90;16.10;100569.00;;;;4976867;28;110387;-66
2021/09/11 03:40:07;;;;;;;6.78;5.85;;;16.00;99.90;16.10;100570.00;;;;4977130;28;106660;-66
2021/09/11 03:42:33;;;;;;;7.50;5.40;;;16.00;99.90;16.10;100575.00;;;;4977823;28;88704;-65
2021/09/11 03:44:59;;;;;;;6.20;5.00;;;16.00;99.90;16.10;100571.00;;;;4977588;28;117513;-66
2021/09/11 03:47:24;;;;;;;6.78;5.40;;;16.10;99.90;16.10;100569.00;;;;4971367;28;109590;-65
2021/09/11 03:49:50;;;;;;;8.30;5.43;;;16.00;99.90;16.10;100573.00;;;;4949974;28;99731;-66
2021/09/11 03:52:17;;;;;;;7.20;5.60;;;16.00;99.90;16.10;100581.00;;;;4955969;28;117428;-66
2021/09/11 03:54:43;;;;;;;9.63;5.53;;;16.00;99.90;16.10;100573.00;;;;4976091;28;119300;-66
2021/09/11 03:57:09;;;;;;;9.93;6.00;;;16.00;99.90;16.10;100582.00;;;;4977631;28;87632;-66
2021/09/11 03:59:35;;;;;;;6.13;5.38;;;16.00;99.90;16.20;100589.00;;;;4977504;28;87573;-66
2021/09/11 04:02:00;;;;;;;9.02;5.95;;;16.10;99.90;16.20;100586.00;;;;4977436;28;98840;-66
2021/09/11 04:04:26;;;;;;;8.27;5.93;;;16.10;99.90;16.30;100589.00;;;;4975953;28;117319;-65
2021/09/11 04:06:52;;;;;;;9.05;5.80;;;16.20;99.90;16.30;100594.00;;;;4977177;28;110558;-65
2021/09/11 04:09:18;;;;;;;10.30;5.93;;;16.20;99.90;16.40;100597.00;;;;4976706;28;108613;-66
2021/09/11 04:11:43;;;;;;;7.57;6.30;;;16.20;99.90;16.50;100596.00;;;;4958789;28;98001;-65
2021/09/11 04:14:09;;;;;;;8.45;5.93;;;16.30;99.90;16.50;100601.00;;;;4977408;28;87763;-66
2021/09/11 04:16:35;;;;;;;8.70;5.47;;;16.30;99.90;16.50;100600.00;;;;4977065;28;88643;-66
2021/09/11 04:19:00;;;;;;;7.40;5.00;;;16.40;99.90;16.50;100598.00;;;;4975875;28;109080;-67
2021/09/11 04:21:26;;;;;;;9.35;6.22;;;16.40;99.90;16.50;100591.00;;;;4975884;28;118035;-67
2021/09/11 04:23:52;;;;;;;6.90;5.53;;;16.40;99.90;16.50;100595.00;;;;4975530;28;117019;-67
2021/09/11 04:26:17;;;;;;;5.93;5.32;;;16.40;99.90;16.50;100586.00;;;;4976880;28;102836;-67
2021/09/11 04:28:43;;;;;;;8.77;6.45;;;16.40;99.90;16.50;100586.00;;;;4985291;28;97263;-67
2021/09/11 04:31:09;;;;;;;8.48;5.97;;;16.40;99.90;16.50;100600.00;;;;4984954;28;118655;-67
2021/09/11 04:33:34;;;;;;;11.20;6.38;;;16.40;99.90;16.50;100598.00;;;;4977850;28;103675;-66
2021/09/11 04:36:00;;;;;;;6.78;5.20;;;16.40;99.90;16.50;100598.00;;;;4977051;28;87690;-67
2021/09/11 04:38:26;;;;;;;9.10;6.45;;;16.30;99.90;16.40;100599.00;;;;4976406;28;101087;-66
2021/09/11 04:40:51;;;;;;;9.88;6.53;;;16.30;99.90;16.40;100609.00;;;;4976089;28;89806;-65
2021/09/11 04:43:18;;;;;;;11.10;6.45;;;16.30;99.90;16.40;100616.00;;;;4975539;28;119403;-65
2021/09/11 04:45:44;;;;;;;6.63;5.78;;;16.30;99.90;16.40;100608.00;;;;4976983;28;88270;-64
2021/09/11 04:48:11;;;;;;;6.82;5.80;;;16.30;99.90;16.40;100615.00;;;;4957732;28;88063;-65
2021/09/11 04:50:37;;;;;;;5.45;4.85;;;16.60;99.90;16.40;100607.00;;;;4958287;28;88790;-66
2021/09/11 04:53:02;;;;;;;9.75;6.00;;;16.30;99.90;16.40;100600.00;;;;4976638;28;88852;-66
2021/09/11 04:55:28;;;;;;;8.20;6.38;;;16.30;99.90;16.40;100605.00;;;;4976982;28;87830;-66
2021/09/11 04:57:54;;;;;;;8.35;6.53;;;16.30;99.90;16.40;100608.00;;;;4976899;28;87097;-66
2021/09/11 05:00:20;;;;;;;8.98;6.45;;;16.30;99.90;16.40;100609.00;;;;4975848;28;116766;-65
2021/09/11 05:02:45;;;;;;;7.75;5.70;;;16.30;99.90;16.50;100610.00;;;;4976112;28;94483;-67
2021/09/11 05:05:11;;;;;;;7.53;6.20;;;16.30;99.90;16.50;100601.00;;;;4975040;28;110517;-65
2021/09/11 05:07:37;;;;;;;9.48;6.75;;;16.30;99.90;16.50;100604.00;;;;4976016;28;93677;-66
2021/09/11 05:10:04;;;;;;;9.80;6.50;;;16.40;99.90;16.50;100598.00;;;;4941358;28;90168;-65
2021/09/11 05:12:29;;;;;;;10.40;5.70;;;16.40;99.90;16.50;100610.00;;;;4976378;28;88035;-65
2021/09/11 05:14:55;;;;;;;9.45;6.25;;;16.40;99.90;16.60;100614.00;;;;4975610;28;110322;-65
2021/09/11 05:17:21;;;;;;;9.73;6.38;;;16.40;99.90;16.60;100622.00;;;;4973159;28;109726;-64
2021/09/11 05:19:47;;;;;;;10.02;6.30;;;16.50;99.90;16.70;100616.00;;;;4956553;28;116296;-65
2021/09/11 05:22:12;;;;;;;11.20;7.25;;;16.50;99.90;16.80;100610.00;;;;4955180;28;118372;-65
2021/09/11 05:24:38;;;;;;;6.18;5.10;;;16.60;99.90;16.90;100608.00;;;;4959356;28;110497;-65
2021/09/11 05:27:05;;;;;;;10.10;6.43;;;16.70;99.90;17.00;100608.00;;;;4953600;28;87914;-66
2021/09/11 05:29:31;;;;;;;9.35;5.25;;;16.80;99.90;17.10;100618.00;;;;4952809;28;90142;-65
2021/09/11 05:31:56;;;;;;;9.65;6.65;;;16.90;99.90;17.10;100603.00;;;;4952471;28;118039;-65
2021/09/11 05:34:22;;;;;;;9.35;6.22;;;17.00;99.90;17.20;100619.00;;;;4956749;28;87730;-66
2021/09/11 05:36:49;;;;;;;10.43;6.07;;;17.00;99.90;17.30;100623.00;;;;4953388;28;109654;-65
2021/09/11 05:39:16;;;;;;;8.05;5.90;;;17.10;99.90;17.40;100622.00;;;;4955387;28;89069;-65
2021/09/11 05:41:43;;;;;;;5.68;5.03;;;17.20;99.90;17.50;100625.00;;;;4953736;28;88112;-65
2021/09/11 05:44:09;;;;;;;7.32;5.50;;;17.30;99.90;17.60;100622.00;;;;4956203;28;87869;-66
2021/09/11 05:46:35;;;;;;;6.20;5.53;;;17.40;99.90;17.70;100627.00;;;;4955603;28;108633;-65
2021/09/11 05:49:00;;;;;;;8.00;6.25;;;17.50;99.90;17.80;100632.00;;;;4952970;28;88366;-64
2021/09/11 05:51:26;;;;;;;7.72;6.15;;;17.70;99.90;18.00;100622.00;;;;4956093;28;117368;-66
2021/09/11 05:53:52;;;;;;;7.15;5.40;;;17.70;99.90;18.20;100624.00;;;;4952550;28;88715;-65
2021/09/11 05:56:17;;;;;;;10.25;5.18;;;17.90;99.90;18.30;100630.00;;;;4953078;28;87576;-65
2021/09/11 05:58:43;;;;;;;7.28;5.60;;;18.00;99.90;18.50;100627.00;;;;4952322;28;115744;-64
2021/09/11 06:01:09;;;;;;;6.63;5.00;;;18.20;99.90;18.60;100632.00;;;;4967328;28;108575;-65
2021/09/11 06:03:34;;;;;;;7.55;5.50;;;18.40;99.90;18.80;100625.00;;;;4952292;28;110419;-65
2021/09/11 06:06:01;;;;;;;6.47;5.78;;;18.60;99.90;19.00;100629.00;;;;4952741;28;109117;-64
2021/09/11 06:08:27;;;;;;;7.63;5.45;;;18.70;99.90;19.30;100628.00;;;;4951850;28;100710;-65
2021/09/11 06:10:53;;;;;;;6.00;4.70;;;19.00;99.90;19.50;100633.00;;;;4952399;28;118061;-65
2021/09/11 06:13:19;;;;;;;6.43;4.72;;;19.20;99.90;19.80;100637.00;;;;4953469;28;87949;-65
2021/09/11 06:15:44;;;;;;;6.85;4.68;;;19.50;99.90;20.00;100630.00;;;;4953278;28;87685;-64
2021/09/11 06:18:10;;;;;;;6.05;5.28;;;19.70;99.90;20.30;100634.00;;;;4956504;28;118718;-65
2021/09/11 06:20:36;;;;;;;5.60;4.13;;;20.00;99.90;20.60;100626.00;;;;4954198;28;116710;-66
2021/09/11 06:23:02;;;;;;;5.45;4.32;;;20.20;99.90;20.80;100622.00;;;;4964002;28;110631;-66
2021/09/11 06:25:27;;;;;;;6.18;4.63;;;20.50;99.90;21.10;100636.00;;;;4953837;28;87808;-66
2021/09/11 06:27:57;;;;;;;5.70;5.10;;;20.70;99.90;21.30;100642.00;;;;4951718;28;112143;-67
2021/09/11 06:30:23;;;;;;;5.20;4.07;;;20.90;99.90;21.50;100639.00;;;;4952467;28;88667;-67
2021/09/11 06:32:50;;;;;;;4.03;3.63;;;21.20;99.90;21.60;100645.00;;;;4952830;28;87975;-68
2021/09/11 06:35:16;;;;;;;4.00;3.38;;;21.30;99.90;21.70;100642.00;;;;4953348;28;87387;-66
2021/09/11 06:37:42;;;;;;;4.43;3.97;;;21.50;99.90;21.80;100647.00;;;;4950877;28;115861;-64
2021/09/11 06:40:08;;;;;;;4.45;3.75;;;21.60;99.90;21.80;100650.00;;;;4955888;28;117926;-64
2021/09/11 06:42:34;;;;;;;4.10;3.30;;;21.60;99.90;21.70;100648.00;;;;4952240;28;88911;-65
2021/09/11 06:45:00;;;;;;;4.38;3.97;;;21.60;99.90;21.70;100649.00;;;;4951842;28;109252;-66
2021/09/11 06:47:25;;;;;;;5.53;3.92;;;21.50;99.90;21.60;100656.00;;;;4953432;28;117639;-65
2021/09/11 06:49:51;;;;;;;5.63;4.38;;;21.50;99.90;21.60;100657.00;;;;4956240;28;98570;-67
2021/09/11 06:52:17;;;;;;;4.28;3.80;;;21.50;99.90;21.70;100655.00;;;;4954611;28;111394;-67
2021/09/11 06:54:43;;;;;;;4.57;3.78;;;21.50;99.90;21.80;100654.00;;;;4954900;28;107872;-66
2021/09/11 06:57:09;;;;;;;5.25;4.10;;;21.70;99.90;22.00;100647.00;;;;4954855;28;89124;-66
2021/09/11 06:59:34;;;;;;;7.35;4.72;;;21.70;99.90;22.10;100650.00;;;;4955163;28;118502;-66
2021/09/11 07:02:00;;;;;;;7.00;3.92;;;21.90;99.90;22.30;100641.00;;;;4954552;28;110727;-66
2021/09/11 07:04:26;;;;;;;5.65;3.85;;;22.10;99.90;22.60;100645.00;;;;4955305;28;101282;-65
2021/09/11 07:06:51;;;;;;;7.70;3.85;;;22.30;99.90;23.00;100644.00;;;;4955047;28;115263;-66
2021/09/11 07:09:17;;;;;;;7.00;4.55;;;22.60;99.90;23.30;100641.00;;;;4954633;28;118870;-67
2021/09/11 07:11:43;;;;;;;4.63;3.30;;;23.00;99.90;23.60;100647.00;;;;4955973;28;87961;-66
2021/09/11 07:14:09;;;;;;;6.93;3.60;;;23.20;99.90;23.70;100655.00;;;;4954594;28;110244;-66
2021/09/11 07:16:35;;;;;;;7.55;3.45;;;23.40;99.90;24.00;100657.00;;;;4954583;28;118619;-66
2021/09/11 07:19:00;;;;;;;6.78;3.88;;;23.70;99.90;24.20;100659.00;;;;4955304;28;87827;-66
2021/09/11 07:21:26;;;;;;;3.40;2.55;;;23.90;99.90;24.30;100666.00;;;;4954250;28;111263;-67
2021/09/11 07:23:52;;;;;;;3.28;2.97;;;24.00;99.90;24.50;100677.00;;;;4955108;28;104387;-66
2021/09/11 07:26:21;;;;;;;2.28;2.08;;;24.20;99.90;24.60;100676.00;;;;4961883;28;108782;-65
2021/09/11 07:28:48;;;;;;;3.80;2.33;;;24.40;99.90;24.70;100684.00;;;;4955777;28;87791;-66
2021/09/11 07:31:14;;;;;;;3.17;2.17;;;24.40;99.90;24.70;100677.00;;;;4955267;28;88746;-65
2021/09/11 07:33:40;;;;;;;2.33;2.05;;;24.40;99.90;24.60;100683.00;;;;4960218;28;87724;-66
2021/09/11 07:36:06;;;;;;;2.35;2.15;;;24.40;99.90;24.60;100686.00;;;;4961958;28;112478;-65
2021/09/11 07:38:34;;;;;;;2.60;2.40;;;24.30;99.90;24.50;100684.00;;;;4960445;28;88505;-65
2021/09/11 07:40:59;;;;;;;2.42;2.22;;;24.30;99.90;24.50;100688.00;;;;4955960;28;87715;-66
2021/09/11 07:43:25;;;;;;;3.55;2.50;;;24.30;99.90;24.40;100693.00;;;;4955292;28;87904;-66
2021/09/11 07:45:51;;;;;;;2.60;1.90;;;24.20;99.90;24.20;100701.00;;;;4954424;28;118517;-65
2021/09/11 07:48:16;;;;;;;2.08;1.88;;;24.10;99.90;24.00;100702.00;;;;4955914;28;87893;-65
2021/09/11 07:50:42;;;;;;;2.03;1.83;;;24.10;99.90;23.80;100708.00;;;;4969138;28;111340;-66
2021/09/11 07:53:08;;;;;;;2.83;1.95;;;23.60;99.90;23.60;100712.00;;;;4962645;28;107571;-65
2021/09/11 07:55:34;;;;;;;3.00;2.00;;;23.50;99.90;23.60;100726.00;;;;4957880;28;88667;-66
2021/09/11 07:57:59;;;;;;;3.10;2.00;;;23.40;99.90;23.50;100726.00;;;;4953789;28;101847;-65
2021/09/11 08:00:26;;;;;;;2.00;1.80;;;23.40;99.90;23.50;100731.00;;;;4957619;28;110985;-65
2021/09/11 08:02:52;;;;;;;1.85;1.70;;;23.60;99.90;23.40;100740.00;;;;4953318;28;87831;-66
2021/09/11 08:05:18;;;;;;;2.00;1.67;;;23.20;99.90;23.30;100727.00;;;;4955468;28;89040;-64
2021/09/11 08:07:44;;;;;;;2.47;2.20;;;23.10;99.90;23.30;100734.00;;;;4960434;28;88382;-65
2021/09/11 08:10:10;;;;;;;2.38;1.95;;;23.10;99.90;23.30;100727.00;;;;4954710;28;109125;-65
2021/09/11 08:12:36;;;;;;;2.20;1.80;;;23.10;99.90;23.30;100735.00;;;;4955200;28;93500;-65
2021/09/11 08:15:04;;;;;;;2.22;1.63;;;23.10;99.90;23.40;100739.00;;;;4953812;28;116678;-65
2021/09/11 08:17:30;;;;;;;2.70;1.88;;;23.10;99.90;23.40;100732.00;;;;4952272;28;88735;-65
2021/09/11 08:19:56;;;;;;;1.95;1.35;;;23.10;99.90;23.40;100731.00;;;;4953994;28;92597;-66
2021/09/11 08:22:21;;;;;;;2.47;1.75;;;23.20;99.90;23.40;100738.00;;;;4954544;28;87902;-66
2021/09/11 08:24:47;;;;;;;2.95;1.52;;;23.20;99.90;23.30;100740.00;;;;4958167;28;99890;-66
2021/09/11 08:27:13;;;;;;;1.42;1.15;;;23.10;99.90;23.20;100741.00;;;;4955772;28;117953;-66
2021/09/11 08:29:40;;;;;;;1.70;1.60;;;23.00;99.90;23.10;100749.00;;;;4960287;28;88949;-65
2021/09/11 08:32:06;;;;;;;4.13;1.23;;;23.20;99.90;23.10;100751.00;;;;4961374;28;87656;-65
2021/09/11 08:34:32;;;;;;;1.83;1.70;;;22.90;99.90;23.20;100749.00;;;;4954664;28;88554;-65
2021/09/11 08:36:57;;;;;;;1.88;1.77;;;22.90;99.90;23.20;100748.00;;;;4954360;28;118410;-64
2021/09/11 08:39:25;;;;;;;3.75;2.10;;;22.90;99.90;23.10;100753.00;;;;4954527;28;87697;-65
2021/09/11 08:41:53;;;;;;;2.90;2.13;;;22.90;99.90;23.00;100758.00;;;;4955590;28;88049;-64
2021/09/11 08:44:19;;;;;;;2.78;1.70;;;23.10;99.90;22.90;100752.00;;;;4953288;28;89965;-65
2021/09/11 08:46:48;;;;;;;2.03;1.75;;;22.70;99.90;22.80;100744.00;;;;4948169;28;118600;-66
2021/09/11 08:49:15;;;;;;;3.22;2.28;;;22.60;99.90;22.60;100748.00;;;;4953399;28;87832;-65
2021/09/11 08:51:41;;;;;;;3.08;2.33;;;22.60;99.90;22.50;100742.00;;;;4955818;28;87847;-66
2021/09/11 08:54:07;;;;;;;2.92;2.33;;;22.30;99.90;22.40;100755.00;;;;4953124;28;118461;-65
2021/09/11 08:56:40;;;;;;;3.40;2.70;;;22.20;99.90;22.30;100751.00;;;;4954581;28;115589;-65
2021/09/11 08:59:11;;;;;;;2.58;2.33;;;22.10;99.90;22.20;100759.00;;;;4957936;28;87909;-65
2021/09/11 09:01:38;;;;;;;3.05;2.40;;;22.00;99.90;22.20;100760.00;;;;4955058;28;87253;-65
2021/09/11 09:04:05;;;;;;;3.00;2.70;;;22.00;99.90;22.00;100769.00;;;;4961203;28;99315;-66
2021/09/11 09:06:33;;;;;;;2.75;1.85;;;21.80;99.90;21.70;100761.00;;;;4953635;28;91129;-71
2021/09/11 09:09:09;;;;;;;4.05;2.97;;;21.60;99.90;21.30;100756.00;;;;4954715;28;88559;-70
2021/09/11 09:11:42;;;;;;;3.25;2.95;;;21.30;99.90;21.10;100759.00;;;;4953725;28;87765;-70
2021/09/11 09:14:15;;;;;;;4.13;2.55;;;21.10;99.90;20.90;100751.00;;;;4953137;28;88951;-71
2021/09/11 09:16:52;;;;;;;5.28;3.30;;;20.90;99.90;20.80;100751.00;;;;4953396;28;88625;-69
2021/09/11 09:19:23;;;;;;;5.20;3.05;;;20.70;99.90;20.80;100760.00;;;;4953668;28;87999;-68
2021/09/11 09:21:54;;;;;;;3.08;2.60;;;20.60;99.90;20.80;100750.00;;;;4953943;28;87773;-69
2021/09/11 09:24:32;;;;;;;3.30;2.63;;;20.60;99.90;20.70;100746.00;;;;4952518;28;87741;-70
2021/09/11 09:27:02;;;;;;;4.28;3.50;;;20.60;99.90;20.80;100746.00;;;;4960665;28;87887;-68
2021/09/11 09:29:29;;;;;;;3.50;3.20;;;20.60;99.90;20.80;100746.00;;;;4953047;28;88157;-67
2021/09/11 09:31:59;;;;;;;3.25;2.95;;;20.60;99.90;20.90;100736.00;;;;4954036;28;88001;-68
2021/09/11 09:34:42;;;;;;;3.28;2.97;;;20.70;99.90;21.00;100749.00;;;;4954598;28;89247;-67
2021/09/11 09:37:13;;;;;;;5.07;3.50;;;20.70;99.90;21.10;100750.00;;;;4953659;28;88354;-69
2021/09/11 09:39:48;;;;;;;4.63;3.58;;;20.80;99.90;21.20;100750.00;;;;4952536;28;87898;-67
2021/09/11 09:42:16;;;;;;;3.88;3.47;;;20.90;99.90;21.30;100751.00;;;;4952992;28;87828;-68
2021/09/11 09:44:48;;;;;;;3.78;3.38;;;21.00;99.90;21.50;100741.00;;;;4953189;28;88903;-68
2021/09/11 09:47:16;;;;;;;3.83;3.28;;;21.10;99.90;21.70;100744.00;;;;4954442;28;88024;-68
2021/09/11 09:50:06;;;;;;;3.83;3.40;;;21.30;99.90;22.00;100740.00;;;;4952417;28;87697;-69
2021/09/11 09:52:34;;;;;;;4.22;2.92;;;21.60;99.90;22.30;100742.00;;;;4961703;28;87167;-69
2021/09/11 09:55:01;;;;;;;4.75;3.10;;;21.90;99.90;22.70;100739.00;;;;4955247;28;89290;-68
2021/09/11 09:57:28;;;;;;;5.20;3.25;;;22.20;99.90;23.00;100736.00;;;;4951852;28;116603;-68
2021/09/11 09:59:54;;;;;;;5.82;3.70;;;22.50;99.90;23.20;100742.00;;;;4956844;28;88903;-69
2021/09/11 10:02:20;;;;;;;3.55;3.22;;;22.70;99.90;23.30;100739.00;;;;4953070;28;87900;-68
2021/09/11 10:04:50;;;;;;;6.95;4.22;;;23.10;99.90;23.50;100742.00;;;;4957710;28;117592;-69
2021/09/11 10:07:18;;;;;;;4.22;3.75;;;23.10;99.90;23.70;100730.00;;;;4952978;28;94846;-69
2021/09/11 10:09:48;;;;;;;2.33;2.08;;;23.30;99.90;23.80;100725.00;;;;4936827;28;87770;-68
2021/09/11 10:12:41;;;;;;;4.50;3.30;;;23.40;99.90;24.00;100723.00;;;;4955600;28;87781;-69
2021/09/11 10:15:28;;;;;;;3.17;2.88;;;23.60;99.90;24.10;100729.00;;;;4953305;28;88065;-69
2021/09/11 10:17:55;;;;;;;5.57;3.25;;;23.80;99.90;24.30;100734.00;;;;4954457;28;87924;-67
2021/09/11 10:20:22;;;;;;;4.22;2.90;;;23.90;99.90;24.50;100729.00;;;;4965350;28;88351;-66
2021/09/11 10:23:13;;;;;;;4.40;3.60;;;24.10;99.90;24.70;100735.00;;;;4958771;28;87679;-66
2021/09/11 10:25:46;;;;;;;3.45;2.95;;;24.40;99.90;24.70;100734.00;;;;4934665;28;89505;-67
2021/09/11 10:28:21;;;;;;;3.78;2.85;;;24.40;99.90;24.60;100723.00;;;;4936056;28;89437;-67
2021/09/11 10:31:08;;;;;;;3.03;2.67;;;24.30;99.90;24.50;100725.00;;;;4937027;28;87834;-66
2021/09/11 10:33:52;;;;;;;4.93;3.28;;;24.30;99.90;24.40;100726.00;;;;4937107;28;88017;-66
2021/09/11 10:36:22;;;;;;;3.20;2.90;;;24.10;99.90;24.30;100731.00;;;;4936412;28;87959;-66
2021/09/11 10:38:52;;;;;;;6.10;2.55;;;24.10;99.90;24.20;100729.00;;;;4936481;28;87918;-66
2021/09/11 10:41:19;;;;;;;2.80;2.50;;;24.00;99.90;24.10;100727.00;;;;4935024;28;88270;-65
2021/09/11 10:44:06;;;;;;;3.75;2.60;;;23.90;99.90;24.00;100734.00;;;;4936461;28;87372;-65